Time;durP1;ratioP1;P1;durP2;ratioP2;P2;SDS_P1;SDS_P2;PMS_P1;PMS_P2;Temp;Humidity;BMP_temperature;BMP_pressure;BME280_temperature;BME280_humidity;BME280_pressure;Samples;Min_cycle;Max_cycle;Signal;HPM_P1;HPM_P2
2023/05/24 00:01:45;;;;;;;11.77;4.83;;;11.40;99.90;;;;;;5067366;28;20444;-72
2023/05/24 00:04:30;;;;;;;11.27;4.30;;;11.30;99.90;;;;;;5063534;28;20603;-72
2023/05/24 00:07:16;;;;;;;14.03;4.13;;;11.30;99.90;;;;;;5069328;28;20557;-73
2023/05/24 00:10:03;;;;;;;13.43;4.43;;;11.40;99.90;;;;;;5065404;28;20423;-72
2023/05/24 00:12:48;;;;;;;8.83;4.80;;;11.40;99.90;;;;;;5063809;28;20472;-72
2023/05/24 00:15:34;;;;;;;8.47;4.40;;;11.30;99.90;;;;;;5058841;28;20459;-73
2023/05/24 00:18:19;;;;;;;7.07;5.00;;;11.20;99.90;;;;;;5066299;28;20568;-72
2023/05/24 00:21:05;;;;;;;7.27;4.63;;;11.10;99.90;;;;;;5064169;28;20963;-72
2023/05/24 00:23:51;;;;;;;16.03;5.60;;;10.90;99.90;;;;;;5065767;28;20975;-73
2023/05/24 00:26:37;;;;;;;12.17;5.60;;;10.90;99.90;;;;;;5064670;28;20467;-73
2023/05/24 00:29:23;;;;;;;9.27;4.90;;;10.80;99.90;;;;;;5066253;28;20442;-72
2023/05/24 00:32:08;;;;;;;11.70;4.60;;;10.60;99.90;;;;;;5065917;28;20443;-73
2023/05/24 00:34:54;;;;;;;7.40;4.73;;;10.50;99.90;;;;;;5057064;28;20422;-71
2023/05/24 00:37:43;;;;;;;8.33;4.90;;;10.60;99.90;;;;;;5061910;28;20983;-73
2023/05/24 00:40:29;;;;;;;9.57;6.00;;;10.70;99.90;;;;;;5063323;28;21010;-75
2023/05/24 00:43:16;;;;;;;15.13;5.27;;;10.70;99.90;;;;;;5066537;28;20437;-73
2023/05/24 00:46:15;;;;;;;9.47;4.50;;;10.80;99.90;;;;;;5066232;28;20418;-73
2023/05/24 00:49:01;;;;;;;5.97;4.10;;;10.80;99.90;;;;;;5062336;28;20423;-73
2023/05/24 00:51:47;;;;;;;12.23;5.90;;;10.80;99.90;;;;;;5069638;28;20451;-72
2023/05/24 00:54:32;;;;;;;8.30;4.70;;;10.70;99.90;;;;;;5055711;28;21042;-73
2023/05/24 00:57:18;;;;;;;5.67;3.87;;;10.90;99.90;;;;;;5065969;28;20811;-73
2023/05/24 01:00:07;;;;;;;10.20;5.10;;;10.90;99.90;;;;;;5069137;28;20473;-73
2023/05/24 01:02:53;;;;;;;10.33;4.70;;;10.80;99.90;;;;;;5066119;28;20463;-73
2023/05/24 01:05:38;;;;;;;10.53;4.70;;;10.90;99.90;;;;;;5060531;28;20439;-73
2023/05/24 01:08:42;;;;;;;12.10;4.57;;;10.90;99.90;;;;;;5068166;28;20875;-73
2023/05/24 01:11:40;;;;;;;7.83;4.20;;;10.80;99.90;;;;;;5062699;28;20493;-73
2023/05/24 01:14:35;;;;;;;9.50;5.10;;;10.80;99.90;;;;;;5063412;28;20517;-73
2023/05/24 01:17:28;;;;;;;11.40;5.67;;;10.90;99.90;;;;;;5067591;28;20448;-73
2023/05/24 01:20:17;;;;;;;18.97;4.37;;;10.90;99.90;;;;;;5067006;28;20528;-72
2023/05/24 01:23:17;;;;;;;10.80;4.90;;;10.90;99.90;;;;;;5064019;28;20460;-74
2023/05/24 01:26:21;;;;;;;11.57;4.50;;;11.00;99.90;;;;;;5070876;28;20559;-73
2023/05/24 01:29:09;;;;;;;7.30;3.63;;;11.10;99.90;;;;;;5064017;28;20451;-73
2023/05/24 01:31:55;;;;;;;12.57;4.20;;;11.20;99.90;;;;;;5069291;28;20500;-74
2023/05/24 01:34:40;;;;;;;8.73;4.57;;;11.30;99.90;;;;;;5058126;28;20520;-73
2023/05/24 01:37:26;;;;;;;12.77;4.13;;;11.20;99.90;;;;;;5069363;28;20432;-72
2023/05/24 01:40:12;;;;;;;14.23;4.43;;;11.10;99.90;;;;;;5070302;28;20414;-73
2023/05/24 01:43:04;;;;;;;12.63;4.17;;;11.10;99.90;;;;;;5071996;28;20454;-74
2023/05/24 01:46:02;;;;;;;12.17;4.70;;;11.20;99.90;;;;;;5063911;28;20479;-74
2023/05/24 01:48:58;;;;;;;9.13;4.50;;;11.40;99.90;;;;;;5069098;28;20447;-73
2023/05/24 01:51:50;;;;;;;9.50;4.10;;;11.50;99.90;;;;;;5068665;28;20418;-73
2023/05/24 01:54:41;;;;;;;13.43;4.00;;;11.20;99.90;;;;;;5062364;28;20540;-73
2023/05/24 01:57:28;;;;;;;7.73;3.80;;;11.20;99.90;;;;;;5071348;28;20418;-74
2023/05/24 02:00:15;;;;;;;10.47;4.63;;;11.20;99.90;;;;;;5069034;28;20458;-73
2023/05/24 02:03:02;;;;;;;10.27;4.43;;;11.20;99.90;;;;;;5064360;28;20833;-74
2023/05/24 02:05:48;;;;;;;12.17;4.47;;;11.30;99.90;;;;;;5068135;28;20579;-72
2023/05/24 02:08:33;;;;;;;11.70;4.80;;;11.30;99.90;;;;;;5068156;28;20457;-73
2023/05/24 02:11:19;;;;;;;12.03;4.77;;;11.20;99.90;;;;;;5068623;28;20445;-72
2023/05/24 02:14:04;;;;;;;8.97;4.43;;;11.10;99.90;;;;;;5062246;28;20447;-72
2023/05/24 02:16:50;;;;;;;8.50;4.10;;;10.90;99.90;;;;;;5070233;28;20472;-72
2023/05/24 02:19:37;;;;;;;8.50;4.30;;;10.80;99.90;;;;;;5065682;28;20427;-72
2023/05/24 02:22:22;;;;;;;8.07;4.20;;;10.80;99.90;;;;;;5066144;28;20997;-72
2023/05/24 02:25:08;;;;;;;7.53;3.87;;;10.80;99.90;;;;;;5073928;28;20415;-72
2023/05/24 02:27:54;;;;;;;7.37;4.07;;;10.90;99.90;;;;;;5070559;28;20816;-73
2023/05/24 02:30:43;;;;;;;11.30;5.30;;;11.00;99.90;;;;;;5070242;28;20570;-72
2023/05/24 02:33:29;;;;;;;10.90;4.53;;;11.10;99.90;;;;;;5068382;28;21015;-73
2023/05/24 02:36:15;;;;;;;19.10;4.90;;;11.20;99.90;;;;;;5068841;28;20423;-72
2023/05/24 02:39:00;;;;;;;13.87;4.50;;;11.30;99.90;;;;;;5069058;28;20469;-72
2023/05/24 02:41:46;;;;;;;8.90;3.90;;;11.40;99.90;;;;;;5068105;28;20808;-72
2023/05/24 02:44:31;;;;;;;17.90;4.03;;;11.40;99.90;;;;;;5062039;28;20464;-72
2023/05/24 02:47:17;;;;;;;16.30;4.90;;;11.40;99.90;;;;;;5070172;28;20414;-72
2023/05/24 02:50:03;;;;;;;7.67;3.77;;;11.40;99.90;;;;;;5071763;28;20444;-72
2023/05/24 02:52:50;;;;;;;9.27;4.00;;;11.60;99.90;;;;;;5067795;28;20435;-73
2023/05/24 02:55:36;;;;;;;9.20;4.23;;;11.70;99.90;;;;;;5066222;28;20444;-72
2023/05/24 02:58:21;;;;;;;13.23;4.80;;;11.70;99.90;;;;;;5065094;28;20624;-73
2023/05/24 03:01:07;;;;;;;15.57;6.20;;;11.70;99.90;;;;;;5070696;28;20438;-72
2023/05/24 03:03:52;;;;;;;10.43;4.43;;;11.70;99.90;;;;;;5065621;28;20487;-72
2023/05/24 03:06:38;;;;;;;7.20;4.20;;;11.80;99.90;;;;;;5069977;28;20497;-72
2023/05/24 03:09:24;;;;;;;13.73;3.90;;;11.90;99.90;;;;;;5070778;28;20444;-72
2023/05/24 03:12:10;;;;;;;15.10;4.50;;;11.90;99.90;;;;;;5062091;28;20520;-72
2023/05/24 03:14:55;;;;;;;12.90;4.30;;;11.90;99.90;;;;;;5069381;28;20507;-72
2023/05/24 03:17:41;;;;;;;13.20;4.90;;;11.90;99.90;;;;;;5073404;28;20462;-72
2023/05/24 03:20:27;;;;;;;10.07;3.67;;;11.90;99.90;;;;;;5066627;28;20480;-72
2023/05/24 03:23:13;;;;;;;9.10;3.97;;;12.00;99.90;;;;;;5066399;28;20455;-72
2023/05/24 03:26:00;;;;;;;12.80;5.13;;;11.90;99.90;;;;;;5068809;28;21922;-73
2023/05/24 03:28:49;;;;;;;15.20;7.00;;;11.90;99.90;;;;;;5067594;28;20448;-72
2023/05/24 03:31:34;;;;;;;14.90;4.47;;;11.90;99.90;;;;;;5065530;28;20497;-72
2023/05/24 03:34:20;;;;;;;23.27;4.73;;;11.90;99.90;;;;;;5071173;28;20459;-72
2023/05/24 03:37:05;;;;;;;12.90;4.43;;;11.80;99.90;;;;;;5065916;28;20491;-72
2023/05/24 03:39:51;;;;;;;10.20;4.10;;;11.80;99.90;;;;;;5067740;28;20983;-73
2023/05/24 03:42:38;;;;;;;16.87;4.70;;;11.80;99.90;;;;;;5062375;28;20980;-72
2023/05/24 03:45:23;;;;;;;15.47;5.00;;;11.80;99.90;;;;;;5065021;28;20584;-73
2023/05/24 03:48:09;;;;;;;19.33;4.13;;;11.80;99.90;;;;;;5063605;28;20813;-72
2023/05/24 03:50:54;;;;;;;14.50;4.00;;;11.90;99.90;;;;;;5063832;28;20863;-72
2023/05/24 03:53:40;;;;;;;13.43;4.30;;;11.90;99.90;;;;;;5070185;28;20479;-72
2023/05/24 03:56:26;;;;;;;12.40;3.70;;;11.90;99.90;;;;;;5068676;28;20442;-72
2023/05/24 03:59:12;;;;;;;11.27;3.93;;;11.90;99.90;;;;;;5067530;28;20422;-72
2023/05/24 04:01:58;;;;;;;14.30;3.93;;;11.90;99.90;;;;;;5059238;28;21313;-72
2023/05/24 04:04:44;;;;;;;20.50;5.17;;;11.90;99.90;;;;;;5062298;28;20442;-72
2023/05/24 04:07:32;;;;;;;13.57;4.47;;;11.80;99.90;;;;;;5071635;28;20540;-72
2023/05/24 04:10:17;;;;;;;14.77;4.53;;;11.70;99.90;;;;;;5069127;28;20526;-72
2023/05/24 04:13:03;;;;;;;20.67;4.50;;;11.60;99.90;;;;;;5061700;28;20982;-72
2023/05/24 04:15:50;;;;;;;12.50;3.90;;;11.60;99.90;;;;;;5068824;28;20578;-73
2023/05/24 04:18:35;;;;;;;11.50;3.90;;;11.70;99.90;;;;;;5068796;28;20444;-73
2023/05/24 04:21:21;;;;;;;11.10;4.17;;;11.70;99.90;;;;;;5062980;28;20419;-72
2023/05/24 04:24:06;;;;;;;18.13;4.50;;;11.70;99.90;;;;;;5059407;28;20447;-72
2023/05/24 04:26:52;;;;;;;7.63;3.80;;;11.70;99.90;;;;;;5063594;28;20422;-72
2023/05/24 04:29:39;;;;;;;11.40;4.20;;;11.70;99.90;;;;;;5066012;28;20433;-72
2023/05/24 04:32:29;;;;;;;15.43;4.20;;;11.70;99.90;;;;;;5059404;28;20496;-72
2023/05/24 04:35:15;;;;;;;18.73;4.20;;;11.70;99.90;;;;;;5069050;28;20494;-72
2023/05/24 04:38:00;;;;;;;17.33;3.90;;;11.80;99.90;;;;;;5068433;28;20562;-72
2023/05/24 04:40:46;;;;;;;19.03;4.93;;;11.80;99.90;;;;;;5066329;28;20570;-72
2023/05/24 04:43:32;;;;;;;16.53;3.70;;;11.80;99.90;;;;;;5065940;28;20479;-72
2023/05/24 04:46:18;;;;;;;21.53;7.67;;;11.80;99.90;;;;;;5067037;28;20951;-72
2023/05/24 04:49:07;;;;;;;14.13;3.60;;;11.70;99.90;;;;;;5064318;28;20468;-72
2023/05/24 04:51:52;;;;;;;15.10;4.83;;;11.60;99.90;;;;;;5070421;28;20421;-72
2023/05/24 04:54:38;;;;;;;14.37;6.00;;;11.70;99.90;;;;;;5071122;28;20628;-71
2023/05/24 04:57:23;;;;;;;16.93;3.47;;;11.70;99.90;;;;;;5066622;28;20605;-73
2023/05/24 05:00:10;;;;;;;21.83;3.20;;;11.70;99.90;;;;;;5068756;28;20426;-72
2023/05/24 05:02:55;;;;;;;13.13;3.97;;;11.70;99.90;;;;;;5066975;28;20825;-72
2023/05/24 05:05:43;;;;;;;13.27;3.43;;;11.80;99.90;;;;;;5070207;28;20410;-72
2023/05/24 05:08:29;;;;;;;9.67;3.83;;;11.80;99.90;;;;;;5070032;28;20467;-72
2023/05/24 05:11:15;;;;;;;17.30;3.27;;;11.90;99.90;;;;;;5066556;28;20424;-73
2023/05/24 05:14:01;;;;;;;18.90;5.90;;;11.90;99.90;;;;;;5072524;28;21327;-72
2023/05/24 05:16:46;;;;;;;11.77;4.10;;;12.00;99.90;;;;;;5074580;28;20422;-71
2023/05/24 05:19:32;;;;;;;10.37;3.10;;;12.00;99.90;;;;;;5070161;28;20418;-72
2023/05/24 05:22:18;;;;;;;14.67;3.13;;;11.90;99.90;;;;;;5063697;28;20422;-71
2023/05/24 05:25:05;;;;;;;13.60;4.03;;;11.90;99.90;;;;;;5068311;28;20419;-71
2023/05/24 05:27:50;;;;;;;11.27;3.87;;;11.90;99.90;;;;;;5063824;28;20421;-71
2023/05/24 05:30:36;;;;;;;12.17;3.47;;;12.00;99.90;;;;;;5061994;28;20467;-71
2023/05/24 05:33:21;;;;;;;13.33;3.77;;;12.10;99.90;;;;;;5066340;28;20468;-71
2023/05/24 05:36:07;;;;;;;18.63;4.07;;;12.30;99.90;;;;;;5067103;28;20485;-71
2023/05/24 05:38:54;;;;;;;21.40;4.30;;;12.40;99.90;;;;;;5070032;28;20939;-71
2023/05/24 05:41:42;;;;;;;15.73;4.40;;;12.40;99.90;;;;;;5060282;28;20591;-71
2023/05/24 05:44:28;;;;;;;19.63;4.33;;;12.50;99.90;;;;;;5064409;28;20480;-72
2023/05/24 05:47:13;;;;;;;13.33;3.93;;;12.50;99.90;;;;;;5078227;28;20427;-72
2023/05/24 05:49:59;;;;;;;23.10;3.70;;;12.60;99.90;;;;;;5063722;28;20435;-72
2023/05/24 05:52:45;;;;;;;15.90;2.83;;;12.60;99.90;;;;;;5068311;28;20436;-72
2023/05/24 05:55:31;;;;;;;12.73;3.80;;;12.70;99.90;;;;;;5069377;28;20626;-72
2023/05/24 05:58:17;;;;;;;13.47;3.23;;;12.80;99.90;;;;;;5066053;28;20430;-72
2023/05/24 06:01:02;;;;;;;13.30;3.07;;;12.80;99.90;;;;;;5063409;28;20536;-72
2023/05/24 06:03:48;;;;;;;16.83;3.53;;;12.80;99.90;;;;;;5069948;28;20456;-72
2023/05/24 06:06:34;;;;;;;21.70;4.10;;;12.70;99.90;;;;;;5069086;28;20440;-72
2023/05/24 06:09:19;;;;;;;9.63;3.33;;;12.70;99.90;;;;;;5071961;28;20508;-71
2023/05/24 06:12:06;;;;;;;8.53;3.70;;;12.70;99.90;;;;;;5067220;28;20448;-71
2023/05/24 06:14:53;;;;;;;8.10;3.10;;;12.60;99.90;;;;;;5060535;28;20470;-71
2023/05/24 06:17:38;;;;;;;11.73;2.97;;;12.70;99.90;;;;;;5067903;28;20472;-72
2023/05/24 06:20:24;;;;;;;8.63;2.80;;;12.80;99.90;;;;;;5069865;28;20436;-72
2023/05/24 06:23:09;;;;;;;10.53;2.80;;;12.80;99.90;;;;;;5064953;28;20538;-72
2023/05/24 06:25:54;;;;;;;15.00;3.70;;;12.80;99.90;;;;;;5067880;28;20433;-71
2023/05/24 06:28:41;;;;;;;13.83;3.70;;;12.80;99.90;;;;;;5066232;28;20835;-71
2023/05/24 06:31:27;;;;;;;20.80;3.70;;;12.90;99.90;;;;;;5064324;28;20793;-72
2023/05/24 06:34:15;;;;;;;20.43;3.70;;;12.90;99.90;;;;;;5068508;28;20628;-71
2023/05/24 06:37:01;;;;;;;11.73;3.40;;;13.10;99.90;;;;;;5061441;28;20478;-72
2023/05/24 06:39:46;;;;;;;16.80;3.90;;;13.10;99.90;;;;;;5068367;28;20868;-72
2023/05/24 06:42:32;;;;;;;16.73;3.37;;;13.20;98.00;;;;;;5063370;28;20456;-72
2023/05/24 06:45:19;;;;;;;14.30;3.60;;;13.20;98.30;;;;;;5069201;28;20440;-71
2023/05/24 06:48:05;;;;;;;12.27;3.47;;;13.20;97.60;;;;;;5078113;28;20447;-72
2023/05/24 06:50:50;;;;;;;13.63;3.77;;;13.30;97.50;;;;;;5068520;28;20519;-71
2023/05/24 06:53:36;;;;;;;11.37;3.00;;;13.40;94.70;;;;;;5069589;28;20547;-72
2023/05/24 06:56:22;;;;;;;12.87;3.73;;;13.40;96.50;;;;;;5068646;28;20455;-71
2023/05/24 06:59:07;;;;;;;15.10;4.03;;;13.50;96.60;;;;;;5070589;28;20455;-72
2023/05/24 07:01:56;;;;;;;14.97;3.40;;;13.50;97.10;;;;;;5066133;28;20557;-71
2023/05/24 07:04:41;;;;;;;11.17;3.63;;;13.60;95.80;;;;;;5072949;28;20815;-71
2023/05/24 07:07:27;;;;;;;15.63;3.00;;;13.60;94.70;;;;;;5068234;28;20571;-72
2023/05/24 07:10:13;;;;;;;20.60;3.53;;;13.60;94.90;;;;;;5071472;28;20457;-69
2023/05/24 07:12:58;;;;;;;10.63;3.17;;;13.80;94.90;;;;;;5070152;28;20550;-70
2023/05/24 07:15:43;;;;;;;13.73;4.50;;;13.90;93.20;;;;;;5072434;28;20442;-70
2023/05/24 07:18:31;;;;;;;17.83;3.90;;;13.90;91.80;;;;;;5060993;28;20441;-71
2023/05/24 07:21:16;;;;;;;13.70;3.57;;;13.90;91.60;;;;;;5071313;28;20412;-71
2023/05/24 07:24:02;;;;;;;16.33;3.60;;;14.00;86.40;;;;;;5067305;28;20496;-71
2023/05/24 07:26:48;;;;;;;11.67;3.53;;;13.90;85.00;;;;;;5065893;28;20423;-71
2023/05/24 07:29:33;;;;;;;22.60;4.17;;;13.80;88.20;;;;;;5067371;28;20527;-70
2023/05/24 07:32:19;;;;;;;8.80;3.43;;;13.90;87.90;;;;;;5070400;28;21016;-71
2023/05/24 07:35:07;;;;;;;16.67;4.20;;;13.90;85.30;;;;;;5062892;28;20538;-71
2023/05/24 07:37:52;;;;;;;17.57;4.20;;;13.90;86.70;;;;;;5068458;28;20443;-72
2023/05/24 07:40:38;;;;;;;17.43;4.60;;;13.90;90.90;;;;;;5067337;28;20503;-71
2023/05/24 07:43:23;;;;;;;17.50;6.80;;;14.00;89.30;;;;;;5066756;28;20521;-71
2023/05/24 07:46:09;;;;;;;29.33;4.70;;;14.10;88.00;;;;;;5061143;28;20426;-71
2023/05/24 07:48:54;;;;;;;12.47;3.60;;;14.20;88.10;;;;;;5061945;28;20492;-71
2023/05/24 07:51:41;;;;;;;11.77;3.33;;;14.30;85.80;;;;;;5057895;28;20457;-71
2023/05/24 07:54:27;;;;;;;15.03;4.23;;;14.30;83.10;;;;;;5063338;28;20481;-71
2023/05/24 07:57:12;;;;;;;20.80;3.90;;;14.30;82.20;;;;;;5062885;28;20455;-71
2023/05/24 07:59:58;;;;;;;17.20;3.80;;;14.40;83.20;;;;;;5062675;28;20431;-71
2023/05/24 08:02:45;;;;;;;13.33;3.97;;;14.40;83.10;;;;;;5062042;28;20451;-72
2023/05/24 08:05:30;;;;;;;10.93;2.73;;;14.50;81.40;;;;;;5069062;28;20961;-72
2023/05/24 08:08:16;;;;;;;15.83;4.33;;;14.60;69.90;;;;;;5059354;28;20821;-72
2023/05/24 08:11:02;;;;;;;12.80;2.93;;;14.60;71.10;;;;;;5064195;28;20801;-72
2023/05/24 08:13:47;;;;;;;22.93;3.83;;;14.60;72.00;;;;;;5062876;28;20467;-73
2023/05/24 08:16:33;;;;;;;9.03;3.10;;;14.70;68.60;;;;;;5057351;28;20588;-72
2023/05/24 08:19:18;;;;;;;12.93;3.20;;;14.70;70.10;;;;;;5065975;28;20962;-72
2023/05/24 08:22:04;;;;;;;18.03;4.70;;;14.80;70.40;;;;;;5066116;28;20437;-72
2023/05/24 08:24:52;;;;;;;20.20;3.60;;;14.90;70.40;;;;;;5071513;28;20461;-72
2023/05/24 08:27:37;;;;;;;15.60;3.13;;;14.90;68.40;;;;;;5053325;28;20444;-72
2023/05/24 08:30:22;;;;;;;8.10;3.17;;;15.00;71.00;;;;;;5067378;28;20818;-72
2023/05/24 08:33:08;;;;;;;11.13;3.40;;;15.10;70.60;;;;;;5072178;28;20452;-72
2023/05/24 08:35:53;;;;;;;9.40;2.70;;;15.20;67.60;;;;;;5065381;28;20450;-72
2023/05/24 08:38:38;;;;;;;23.10;4.50;;;15.20;65.70;;;;;;5072866;28;20462;-72
2023/05/24 08:41:26;;;;;;;21.23;4.17;;;15.30;66.00;;;;;;5064186;28;20449;-72
2023/05/24 08:44:12;;;;;;;12.30;3.63;;;15.30;62.20;;;;;;5066507;28;20465;-72
2023/05/24 08:46:59;;;;;;;13.50;3.30;;;15.40;61.20;;;;;;5059973;28;20449;-72
2023/05/24 08:49:45;;;;;;;13.83;3.20;;;15.40;58.80;;;;;;5065122;28;20404;-72
2023/05/24 08:52:32;;;;;;;12.57;2.53;;;15.40;59.20;;;;;;5068237;28;20478;-72
2023/05/24 08:55:18;;;;;;;7.83;2.43;;;15.50;57.40;;;;;;5063492;28;20450;-72
2023/05/24 08:58:05;;;;;;;5.97;2.47;;;15.50;50.30;;;;;;5065072;28;20458;-72
2023/05/24 09:00:50;;;;;;;6.10;2.37;;;15.40;51.20;;;;;;5058520;28;20451;-72
2023/05/24 09:03:37;;;;;;;10.63;2.70;;;15.50;48.50;;;;;;5061560;28;20875;-72
2023/05/24 09:06:24;;;;;;;15.13;3.30;;;15.40;46.60;;;;;;5050959;28;20449;-72
2023/05/24 09:09:10;;;;;;;10.43;3.30;;;15.50;42.80;;;;;;5062804;28;20522;-72
2023/05/24 09:12:01;;;;;;;6.83;2.20;;;15.50;41.40;;;;;;5054322;28;20824;-72
2023/05/24 09:14:48;;;;;;;9.83;2.70;;;15.60;43.60;;;;;;5083005;22;20499;-71
2023/05/24 09:17:35;;;;;;;12.07;2.63;;;15.60;38.30;;;;;;5057590;28;20489;-72
2023/05/24 09:20:21;;;;;;;5.77;2.33;;;15.60;43.90;;;;;;5058913;28;20460;-71
2023/05/24 09:23:07;;;;;;;12.03;2.60;;;15.80;44.60;;;;;;5060974;28;20535;-72
2023/05/24 09:25:52;;;;;;;11.27;2.70;;;15.80;38.20;;;;;;5037483;28;20452;-71
2023/05/24 09:28:40;;;;;;;9.40;3.23;;;15.70;40.20;;;;;;5035430;28;20590;-71
2023/05/24 09:31:33;;;;;;;14.27;3.60;;;15.80;38.00;;;;;;5042581;28;20589;-71
2023/05/24 09:34:19;;;;;;;9.10;2.70;;;15.90;35.20;;;;;;5030817;28;23248;-71
2023/05/24 09:37:05;;;;;;;12.57;3.80;;;16.00;33.70;;;;;;5047269;28;20464;-71
2023/05/24 09:39:51;;;;;;;11.13;3.30;;;16.10;36.90;;;;;;5045056;28;21018;-71
2023/05/24 09:42:36;;;;;;;11.00;2.93;;;16.10;35.40;;;;;;5041794;28;20577;-71
2023/05/24 09:45:24;;;;;;;7.70;2.97;;;16.00;33.00;;;;;;5043978;28;20563;-72
2023/05/24 09:48:12;;;;;;;15.70;2.63;;;16.00;34.10;;;;;;5040284;28;20457;-71
2023/05/24 09:51:02;;;;;;;17.50;4.60;;;15.90;34.10;;;;;;5052990;28;20498;-70
2023/05/24 09:53:50;;;;;;;8.70;3.10;;;15.80;36.70;;;;;;5048501;28;20477;-72
2023/05/24 09:56:35;;;;;;;9.90;3.37;;;15.60;41.30;;;;;;5044620;28;20457;-71
2023/05/24 09:59:21;;;;;;;13.17;3.17;;;15.60;43.30;;;;;;5044514;28;20449;-72
2023/05/24 10:02:10;;;;;;;13.00;3.47;;;15.50;41.70;;;;;;5044895;28;20808;-72
2023/05/24 10:04:59;;;;;;;13.40;3.23;;;15.50;44.60;;;;;;5043166;28;21116;-72
2023/05/24 10:07:45;;;;;;;13.43;3.30;;;15.70;44.70;;;;;;5043267;28;20452;-72
2023/05/24 10:10:31;;;;;;;15.13;2.50;;;15.80;47.30;;;;;;5051871;28;20458;-72
2023/05/24 10:13:18;;;;;;;15.90;4.00;;;16.00;43.40;;;;;;5045984;28;20437;-72
2023/05/24 10:16:04;;;;;;;13.33;3.53;;;16.20;44.80;;;;;;5049515;28;20453;-72
2023/05/24 10:18:49;;;;;;;18.00;4.10;;;16.10;38.80;;;;;;5041279;28;20439;-72
2023/05/24 10:21:40;;;;;;;9.37;2.67;;;16.10;39.30;;;;;;5043675;28;20500;-72
2023/05/24 10:24:31;;;;;;;12.13;3.37;;;16.10;31.90;;;;;;5044279;28;20452;-71
2023/05/24 10:27:23;;;;;;;9.13;3.13;;;16.20;31.40;;;;;;5037804;28;20959;-72
2023/05/24 10:30:14;;;;;;;6.97;2.93;;;16.20;33.00;;;;;;5043195;28;20453;-72
2023/05/24 10:33:03;;;;;;;8.70;3.40;;;16.30;35.60;;;;;;5050003;28;20455;-71
2023/05/24 10:35:49;;;;;;;10.90;3.43;;;16.50;34.00;;;;;;5055098;28;20465;-71
2023/05/24 10:38:38;;;;;;;11.33;3.63;;;16.50;33.90;;;;;;5054226;28;20442;-72
2023/05/24 10:41:26;;;;;;;9.27;3.57;;;16.70;38.60;;;;;;5045369;28;20449;-71
2023/05/24 10:44:12;;;;;;;12.17;3.20;;;16.90;33.40;;;;;;5051788;28;20467;-72
2023/05/24 10:47:08;;;;;;;13.40;4.40;;;16.90;35.80;;;;;;5039388;28;20428;-72
2023/05/24 10:49:57;;;;;;;12.20;4.53;;;16.90;34.50;;;;;;5062293;28;20455;-72
2023/05/24 10:52:43;;;;;;;15.27;3.30;;;16.80;34.60;;;;;;5045810;28;20452;-71
2023/05/24 10:55:34;;;;;;;8.53;2.97;;;16.80;36.10;;;;;;5048629;28;20474;-71
2023/05/24 10:58:20;;;;;;;7.30;3.20;;;16.80;34.80;;;;;;5051926;28;20442;-71
2023/05/24 11:01:12;;;;;;;12.47;3.73;;;17.00;34.70;;;;;;5052439;28;20454;-72
2023/05/24 11:04:07;;;;;;;9.70;2.93;;;17.00;36.40;;;;;;5045589;28;20477;-71
2023/05/24 11:06:59;;;;;;;9.73;3.07;;;17.20;32.50;;;;;;5046928;28;20484;-71
2023/05/24 11:09:51;;;;;;;12.33;3.10;;;17.30;35.10;;;;;;5047978;28;20426;-72
2023/05/24 11:12:40;;;;;;;10.43;3.70;;;17.50;28.60;;;;;;5052591;28;20454;-71
2023/05/24 11:15:27;;;;;;;10.93;2.90;;;17.60;27.60;;;;;;5040641;28;21095;-72
2023/05/24 11:18:16;;;;;;;14.93;4.20;;;17.70;29.50;;;;;;5053273;28;20473;-72
2023/05/24 11:21:02;;;;;;;12.73;3.43;;;17.60;28.10;;;;;;5037613;28;20444;-71
2023/05/24 11:23:49;;;;;;;8.60;3.53;;;17.50;26.70;;;;;;5056780;28;20496;-71
2023/05/24 11:26:35;;;;;;;14.00;3.33;;;17.50;28.50;;;;;;5044728;28;20517;-71
2023/05/24 11:29:22;;;;;;;10.77;3.57;;;17.60;27.30;;;;;;5047371;28;20787;-72
2023/05/24 11:32:08;;;;;;;9.60;3.40;;;17.70;25.40;;;;;;5048556;28;20443;-71
2023/05/24 11:34:55;;;;;;;8.70;3.30;;;17.80;23.90;;;;;;5052365;28;20479;-72
2023/05/24 11:37:40;;;;;;;9.17;2.87;;;17.90;25.40;;;;;;5045109;28;20867;-71
2023/05/24 11:40:25;;;;;;;11.40;3.53;;;18.00;24.80;;;;;;5049809;28;20470;-72
2023/05/24 11:43:14;;;;;;;7.93;3.20;;;17.90;25.50;;;;;;5054805;28;20444;-72
2023/05/24 11:46:00;;;;;;;10.43;3.60;;;17.80;25.50;;;;;;5049055;28;20447;-72
2023/05/24 11:48:56;;;;;;;10.70;3.70;;;17.90;25.40;;;;;;5044878;28;20472;-71
2023/05/24 11:51:42;;;;;;;7.60;2.90;;;18.00;25.70;;;;;;5048326;28;20445;-71
2023/05/24 11:54:28;;;;;;;9.63;3.17;;;18.00;24.80;;;;;;5043259;28;20524;-72
2023/05/24 11:57:14;;;;;;;13.60;3.60;;;17.90;25.10;;;;;;5040143;28;20496;-71
2023/05/24 11:59:59;;;;;;;14.00;4.07;;;17.90;24.70;;;;;;5050005;28;20454;-72
2023/05/24 12:02:48;;;;;;;7.73;3.57;;;18.10;26.30;;;;;;5047867;28;20606;-71
2023/05/24 12:05:35;;;;;;;11.03;3.90;;;18.20;25.90;;;;;;5043753;28;20467;-72
2023/05/24 12:08:21;;;;;;;17.27;4.47;;;18.30;24.40;;;;;;5046895;28;20456;-71
2023/05/24 12:11:06;;;;;;;12.63;4.83;;;18.40;24.40;;;;;;5039919;28;20602;-72
2023/05/24 12:13:52;;;;;;;11.30;3.67;;;18.50;24.00;;;;;;5039079;28;20475;-71
2023/05/24 12:16:37;;;;;;;15.57;3.97;;;18.70;22.90;;;;;;5034545;28;20476;-72
2023/05/24 12:19:26;;;;;;;8.37;3.20;;;18.70;22.50;;;;;;5039296;28;20806;-71
2023/05/24 12:22:11;;;;;;;10.47;3.57;;;18.80;21.20;;;;;;5037026;28;20954;-72
2023/05/24 12:24:57;;;;;;;9.90;3.50;;;18.70;21.60;;;;;;5039273;28;20866;-72
2023/05/24 12:27:46;;;;;;;9.03;3.13;;;18.70;22.10;;;;;;5037496;28;20444;-71
2023/05/24 12:30:31;;;;;;;13.57;3.00;;;18.80;20.40;;;;;;5033915;28;20456;-72
2023/05/24 12:33:18;;;;;;;8.90;2.90;;;18.90;20.20;;;;;;5040434;28;20852;-71
2023/05/24 12:36:07;;;;;;;13.73;4.07;;;18.90;20.50;;;;;;5041837;28;21047;-72
2023/05/24 12:38:52;;;;;;;10.50;3.43;;;18.90;21.50;;;;;;5038802;28;20518;-72
2023/05/24 12:41:40;;;;;;;13.27;3.97;;;19.10;21.90;;;;;;5038829;28;20953;-72
2023/05/24 12:44:27;;;;;;;10.67;3.50;;;19.40;23.80;;;;;;5036623;28;21089;-72
2023/05/24 12:47:12;;;;;;;9.17;3.43;;;19.60;19.60;;;;;;5044553;28;20455;-72
2023/05/24 12:49:58;;;;;;;8.83;3.30;;;19.70;20.80;;;;;;5037746;28;21003;-72
2023/05/24 12:52:46;;;;;;;10.37;3.57;;;19.90;20.80;;;;;;5043514;28;20447;-72
2023/05/24 12:55:31;;;;;;;10.60;3.17;;;19.80;17.50;;;;;;5039863;28;20465;-72
2023/05/24 12:58:18;;;;;;;18.83;3.53;;;19.80;18.00;;;;;;5041018;28;20462;-72
2023/05/24 13:01:04;;;;;;;7.60;4.13;;;19.90;17.10;;;;;;5036126;28;20512;-72
2023/05/24 13:03:49;;;;;;;7.07;3.53;;;20.00;16.20;;;;;;5043420;28;20458;-72
2023/05/24 13:06:36;;;;;;;16.30;4.30;;;19.90;17.60;;;;;;5037079;28;20518;-72
2023/05/24 13:09:24;;;;;;;12.77;3.40;;;19.90;19.10;;;;;;5038189;28;20818;-72
2023/05/24 13:12:10;;;;;;;11.00;3.80;;;20.10;19.80;;;;;;5043171;28;20442;-72
2023/05/24 13:14:55;;;;;;;12.50;3.77;;;20.10;18.90;;;;;;5046455;28;20518;-72
2023/05/24 13:17:41;;;;;;;10.33;3.40;;;20.10;19.60;;;;;;5047155;28;20478;-72
2023/05/24 13:20:26;;;;;;;10.50;2.97;;;19.90;18.20;;;;;;5044421;28;20450;-71
2023/05/24 13:23:12;;;;;;;10.73;3.50;;;19.90;18.20;;;;;;5044255;28;20814;-71
2023/05/24 13:25:59;;;;;;;8.50;3.13;;;20.00;16.70;;;;;;5045327;28;20440;-71
2023/05/24 13:28:44;;;;;;;15.47;4.53;;;20.10;17.50;;;;;;5043247;28;20931;-71
2023/05/24 13:31:30;;;;;;;9.73;3.43;;;20.10;19.00;;;;;;5041479;28;20811;-71
2023/05/24 13:34:16;;;;;;;8.27;2.93;;;20.30;19.00;;;;;;5044297;28;20479;-71
2023/05/24 13:37:01;;;;;;;13.37;4.53;;;20.30;16.80;;;;;;5043518;28;20879;-72
2023/05/24 13:39:47;;;;;;;14.70;4.13;;;20.30;15.80;;;;;;5040443;28;20986;-71
2023/05/24 13:42:35;;;;;;;8.73;4.30;;;20.40;16.10;;;;;;5042595;28;20538;-71
2023/05/24 13:45:21;;;;;;;7.33;3.43;;;20.40;15.30;;;;;;5044504;28;21928;-70
2023/05/24 13:48:06;;;;;;;13.37;3.33;;;20.60;15.40;;;;;;5045342;28;20467;-71
2023/05/24 13:50:52;;;;;;;12.53;4.03;;;20.70;19.60;;;;;;5049609;28;20455;-71
2023/05/24 13:53:37;;;;;;;9.10;2.90;;;20.80;18.70;;;;;;5043908;28;20448;-72
2023/05/24 13:56:23;;;;;;;8.80;3.80;;;20.70;17.20;;;;;;5045026;28;20587;-71
2023/05/24 13:59:11;;;;;;;12.63;3.30;;;20.70;15.50;;;;;;5039853;28;20523;-70
2023/05/24 14:01:56;;;;;;;9.20;4.33;;;20.90;16.80;;;;;;5043873;28;20464;-70
2023/05/24 14:04:42;;;;;;;13.57;3.60;;;20.80;16.20;;;;;;5044887;28;21021;-70
2023/05/24 14:07:27;;;;;;;9.17;4.20;;;20.90;15.70;;;;;;5043420;28;20456;-70
2023/05/24 14:10:13;;;;;;;13.33;4.30;;;21.00;16.80;;;;;;5043190;28;20482;-71
2023/05/24 14:12:58;;;;;;;14.67;4.10;;;21.00;14.50;;;;;;5042199;28;20804;-70
2023/05/24 14:15:45;;;;;;;8.80;4.10;;;20.80;16.00;;;;;;5041768;28;20535;-71
2023/05/24 14:18:31;;;;;;;12.10;4.27;;;20.60;15.40;;;;;;5039257;28;20436;-71
2023/05/24 14:21:17;;;;;;;11.90;3.13;;;20.40;15.30;;;;;;5044991;28;20534;-71